sensor_id;sensor_type;location;lat;lon;timestamp;temperature;humidity
21744;DHT22;11034;48.556;9.342;2023-11-21T00:00:10;7.00;99.90
21744;DHT22;11034;48.556;9.342;2023-11-21T00:02:40;7.00;99.90
21744;DHT22;11034;48.556;9.342;2023-11-21T00:05:09;7.00;99.90
21744;DHT22;11034;48.556;9.342;2023-11-21T00:07:40;7.00;99.90
21744;DHT22;11034;48.556;9.342;2023-11-21T00:10:09;7.00;99.90
21744;DHT22;11034;48.556;9.342;2023-11-21T00:12:39;7.00;99.90
21744;DHT22;11034;48.556;9.342;2023-11-21T00:15:10;7.00;99.90
21744;DHT22;11034;48.556;9.342;2023-11-21T00:17:42;7.00;99.90
21744;DHT22;11034;48.556;9.342;2023-11-21T00:20:10;7.10;99.90
21744;DHT22;11034;48.556;9.342;2023-11-21T00:22:41;7.00;99.90
21744;DHT22;11034;48.556;9.342;2023-11-21T00:25:10;7.00;99.90
21744;DHT22;11034;48.556;9.342;2023-11-21T00:27:40;7.10;99.90
21744;DHT22;11034;48.556;9.342;2023-11-21T00:30:10;7.10;99.90
21744;DHT22;11034;48.556;9.342;2023-11-21T00:32:40;7.10;99.90
21744;DHT22;11034;48.556;9.342;2023-11-21T00:35:11;7.10;99.90
21744;DHT22;11034;48.556;9.342;2023-11-21T00:37:39;7.10;99.90
21744;DHT22;11034;48.556;9.342;2023-11-21T00:40:14;7.10;99.90
21744;DHT22;11034;48.556;9.342;2023-11-21T00:42:47;7.20;99.90
21744;DHT22;11034;48.556;9.342;2023-11-21T00:45:16;7.20;99.90
21744;DHT22;11034;48.556;9.342;2023-11-21T00:47:46;7.20;99.90
21744;DHT22;11034;48.556;9.342;2023-11-21T00:50:14;7.20;99.90
21744;DHT22;11034;48.556;9.342;2023-11-21T00:52:42;7.20;99.90
21744;DHT22;11034;48.556;9.342;2023-11-21T00:55:11;7.20;99.90
21744;DHT22;11034;48.556;9.342;2023-11-21T00:57:39;7.20;99.90
21744;DHT22;11034;48.556;9.342;2023-11-21T01:00:10;7.30;99.90
21744;DHT22;11034;48.556;9.342;2023-11-21T01:02:41;7.30;99.90
21744;DHT22;11034;48.556;9.342;2023-11-21T01:05:11;7.30;99.90
21744;DHT22;11034;48.556;9.342;2023-11-21T01:07:40;7.30;99.90
21744;DHT22;11034;48.556;9.342;2023-11-21T01:10:09;7.20;99.90
21744;DHT22;11034;48.556;9.342;2023-11-21T01:12:38;7.20;99.90
21744;DHT22;11034;48.556;9.342;2023-11-21T01:15:08;7.20;99.90
21744;DHT22;11034;48.556;9.342;2023-11-21T01:17:39;7.20;99.90
21744;DHT22;11034;48.556;9.342;2023-11-21T01:20:11;7.10;99.90
21744;DHT22;11034;48.556;9.342;2023-11-21T01:22:41;7.10;99.90
21744;DHT22;11034;48.556;9.342;2023-11-21T01:25:11;7.10;99.90
21744;DHT22;11034;48.556;9.342;2023-11-21T01:27:41;7.10;99.90
21744;DHT22;11034;48.556;9.342;2023-11-21T01:30:11;7.10;99.90
21744;DHT22;11034;48.556;9.342;2023-11-21T01:32:40;7.10;99.90
21744;DHT22;11034;48.556;9.342;2023-11-21T01:35:09;7.10;99.90
21744;DHT22;11034;48.556;9.342;2023-11-21T01:37:42;7.00;99.90
21744;DHT22;11034;48.556;9.342;2023-11-21T01:40:11;7.00;99.90
21744;DHT22;11034;48.556;9.342;2023-11-21T01:42:41;7.10;99.90
21744;DHT22;11034;48.556;9.342;2023-11-21T01:45:16;7.10;99.90
21744;DHT22;11034;48.556;9.342;2023-11-21T01:47:44;7.10;99.90
21744;DHT22;11034;48.556;9.342;2023-11-21T01:50:16;7.10;99.90
21744;DHT22;11034;48.556;9.342;2023-11-21T01:52:46;7.20;99.90
21744;DHT22;11034;48.556;9.342;2023-11-21T01:55:17;7.10;99.90
21744;DHT22;11034;48.556;9.342;2023-11-21T01:57:55;7.20;99.90
21744;DHT22;11034;48.556;9.342;2023-11-21T02:00:26;7.20;99.90
21744;DHT22;11034;48.556;9.342;2023-11-21T02:02:56;7.20;99.90
21744;DHT22;11034;48.556;9.342;2023-11-21T02:05:25;7.20;99.90
21744;DHT22;11034;48.556;9.342;2023-11-21T02:07:54;7.20;99.90
21744;DHT22;11034;48.556;9.342;2023-11-21T02:10:26;7.20;99.90
21744;DHT22;11034;48.556;9.342;2023-11-21T02:12:54;7.20;99.90
21744;DHT22;11034;48.556;9.342;2023-11-21T02:15:26;7.20;99.90
21744;DHT22;11034;48.556;9.342;2023-11-21T02:17:56;7.20;99.90
21744;DHT22;11034;48.556;9.342;2023-11-21T02:20:30;7.20;99.90
21744;DHT22;11034;48.556;9.342;2023-11-21T02:23:03;7.20;99.90
21744;DHT22;11034;48.556;9.342;2023-11-21T02:25:32;7.30;99.90
21744;DHT22;11034;48.556;9.342;2023-11-21T02:28:03;7.30;99.90
21744;DHT22;11034;48.556;9.342;2023-11-21T02:30:34;7.30;99.90
21744;DHT22;11034;48.556;9.342;2023-11-21T02:33:04;7.30;99.90
21744;DHT22;11034;48.556;9.342;2023-11-21T02:35:32;7.40;99.90
21744;DHT22;11034;48.556;9.342;2023-11-21T02:38:03;7.30;99.90
21744;DHT22;11034;48.556;9.342;2023-11-21T02:40:33;7.30;99.90
21744;DHT22;11034;48.556;9.342;2023-11-21T02:43:01;7.30;99.90
21744;DHT22;11034;48.556;9.342;2023-11-21T02:45:32;7.20;99.90
21744;DHT22;11034;48.556;9.342;2023-11-21T02:48:01;7.20;99.90
21744;DHT22;11034;48.556;9.342;2023-11-21T02:50:29;7.20;99.90
21744;DHT22;11034;48.556;9.342;2023-11-21T02:52:57;7.20;99.90
21744;DHT22;11034;48.556;9.342;2023-11-21T02:55:28;7.20;99.90
21744;DHT22;11034;48.556;9.342;2023-11-21T02:57:57;7.20;99.90
21744;DHT22;11034;48.556;9.342;2023-11-21T03:00:26;7.20;99.90
21744;DHT22;11034;48.556;9.342;2023-11-21T03:02:55;7.20;99.90
21744;DHT22;11034;48.556;9.342;2023-11-21T03:05:24;7.10;99.90
21744;DHT22;11034;48.556;9.342;2023-11-21T03:07:52;7.20;99.90
21744;DHT22;11034;48.556;9.342;2023-11-21T03:10:20;7.20;99.90
21744;DHT22;11034;48.556;9.342;2023-11-21T03:12:51;7.20;99.90
21744;DHT22;11034;48.556;9.342;2023-11-21T03:15:19;7.20;99.90
21744;DHT22;11034;48.556;9.342;2023-11-21T03:17:48;7.20;99.90
21744;DHT22;11034;48.556;9.342;2023-11-21T03:20:17;7.10;99.90
21744;DHT22;11034;48.556;9.342;2023-11-21T03:22:45;7.10;99.90
21744;DHT22;11034;48.556;9.342;2023-11-21T03:25:14;7.10;99.90
21744;DHT22;11034;48.556;9.342;2023-11-21T03:27:44;7.10;99.90
21744;DHT22;11034;48.556;9.342;2023-11-21T03:30:14;7.10;99.90
21744;DHT22;11034;48.556;9.342;2023-11-21T03:32:42;7.10;99.90
21744;DHT22;11034;48.556;9.342;2023-11-21T03:35:10;7.10;99.90
21744;DHT22;11034;48.556;9.342;2023-11-21T03:37:38;7.20;99.90
21744;DHT22;11034;48.556;9.342;2023-11-21T03:40:09;7.20;99.90
21744;DHT22;11034;48.556;9.342;2023-11-21T03:42:39;7.20;99.90
21744;DHT22;11034;48.556;9.342;2023-11-21T03:45:08;7.20;99.90
21744;DHT22;11034;48.556;9.342;2023-11-21T03:47:41;7.20;99.90
21744;DHT22;11034;48.556;9.342;2023-11-21T03:50:10;7.20;99.90
21744;DHT22;11034;48.556;9.342;2023-11-21T03:52:38;7.20;99.90
21744;DHT22;11034;48.556;9.342;2023-11-21T03:55:07;7.20;99.90
21744;DHT22;11034;48.556;9.342;2023-11-21T03:57:35;7.20;99.90
21744;DHT22;11034;48.556;9.342;2023-11-21T04:00:04;7.20;99.90
21744;DHT22;11034;48.556;9.342;2023-11-21T04:02:35;7.20;99.90
21744;DHT22;11034;48.556;9.342;2023-11-21T04:05:05;7.20;99.90
21744;DHT22;11034;48.556;9.342;2023-11-21T04:07:34;7.30;99.90
21744;DHT22;11034;48.556;9.342;2023-11-21T04:10:02;7.30;99.90
21744;DHT22;11034;48.556;9.342;2023-11-21T04:12:30;7.30;99.90
21744;DHT22;11034;48.556;9.342;2023-11-21T04:14:58;7.30;99.90
21744;DHT22;11034;48.556;9.342;2023-11-21T04:17:26;7.30;99.90
21744;DHT22;11034;48.556;9.342;2023-11-21T04:19:55;7.30;99.90
21744;DHT22;11034;48.556;9.342;2023-11-21T04:22:24;7.30;99.90
21744;DHT22;11034;48.556;9.342;2023-11-21T04:24:52;7.30;99.90
21744;DHT22;11034;48.556;9.342;2023-11-21T04:27:22;7.30;99.90
21744;DHT22;11034;48.556;9.342;2023-11-21T04:29:50;7.40;99.90
21744;DHT22;11034;48.556;9.342;2023-11-21T04:32:18;7.30;99.90
21744;DHT22;11034;48.556;9.342;2023-11-21T04:34:46;7.30;99.90
21744;DHT22;11034;48.556;9.342;2023-11-21T04:37:14;7.30;99.90
21744;DHT22;11034;48.556;9.342;2023-11-21T04:39:44;7.30;99.90
21744;DHT22;11034;48.556;9.342;2023-11-21T04:42:12;7.20;99.90
21744;DHT22;11034;48.556;9.342;2023-11-21T04:44:40;7.30;99.90
21744;DHT22;11034;48.556;9.342;2023-11-21T04:47:08;7.20;99.90
21744;DHT22;11034;48.556;9.342;2023-11-21T04:49:37;7.20;99.90
21744;DHT22;11034;48.556;9.342;2023-11-21T04:52:05;7.20;99.90
21744;DHT22;11034;48.556;9.342;2023-11-21T04:54:34;7.20;99.90
21744;DHT22;11034;48.556;9.342;2023-11-21T04:57:03;7.20;99.90
21744;DHT22;11034;48.556;9.342;2023-11-21T04:59:34;7.20;99.90
21744;DHT22;11034;48.556;9.342;2023-11-21T05:02:02;7.20;99.90
21744;DHT22;11034;48.556;9.342;2023-11-21T05:04:32;7.10;99.90
21744;DHT22;11034;48.556;9.342;2023-11-21T05:07:00;7.20;99.90
21744;DHT22;11034;48.556;9.342;2023-11-21T05:09:31;7.10;99.90
21744;DHT22;11034;48.556;9.342;2023-11-21T05:11:59;7.10;99.90
21744;DHT22;11034;48.556;9.342;2023-11-21T05:14:29;7.10;99.90
21744;DHT22;11034;48.556;9.342;2023-11-21T05:16:57;7.10;99.90
21744;DHT22;11034;48.556;9.342;2023-11-21T05:19:26;7.10;99.90
21744;DHT22;11034;48.556;9.342;2023-11-21T05:21:54;7.10;99.90
21744;DHT22;11034;48.556;9.342;2023-11-21T05:24:22;7.10;99.90
21744;DHT22;11034;48.556;9.342;2023-11-21T05:26:50;7.10;99.90
21744;DHT22;11034;48.556;9.342;2023-11-21T05:29:19;7.10;99.90
21744;DHT22;11034;48.556;9.342;2023-11-21T05:31:49;7.10;99.90
21744;DHT22;11034;48.556;9.342;2023-11-21T05:34:18;7.10;99.90
21744;DHT22;11034;48.556;9.342;2023-11-21T05:36:47;7.10;99.90
21744;DHT22;11034;48.556;9.342;2023-11-21T05:39:16;7.10;99.90
21744;DHT22;11034;48.556;9.342;2023-11-21T05:41:45;7.10;99.90
21744;DHT22;11034;48.556;9.342;2023-11-21T05:44:16;7.00;99.90
21744;DHT22;11034;48.556;9.342;2023-11-21T05:46:45;7.00;99.90
21744;DHT22;11034;48.556;9.342;2023-11-21T05:49:15;7.00;99.90
21744;DHT22;11034;48.556;9.342;2023-11-21T05:51:43;6.90;99.90
21744;DHT22;11034;48.556;9.342;2023-11-21T05:54:14;6.90;99.90
21744;DHT22;11034;48.556;9.342;2023-11-21T05:56:47;6.90;99.90
21744;DHT22;11034;48.556;9.342;2023-11-21T05:59:22;6.90;99.90
21744;DHT22;11034;48.556;9.342;2023-11-21T06:01:50;6.90;99.90
21744;DHT22;11034;48.556;9.342;2023-11-21T06:04:20;6.90;99.90
21744;DHT22;11034;48.556;9.342;2023-11-21T06:06:51;6.80;99.90
21744;DHT22;11034;48.556;9.342;2023-11-21T06:09:20;6.80;99.90
21744;DHT22;11034;48.556;9.342;2023-11-21T06:11:49;6.80;99.90
21744;DHT22;11034;48.556;9.342;2023-11-21T06:14:17;6.70;99.90
21744;DHT22;11034;48.556;9.342;2023-11-21T06:16:48;6.70;99.90
21744;DHT22;11034;48.556;9.342;2023-11-21T06:19:18;6.70;99.90
21744;DHT22;11034;48.556;9.342;2023-11-21T06:21:47;6.70;99.90
21744;DHT22;11034;48.556;9.342;2023-11-21T06:31:00;6.60;99.90
21744;DHT22;11034;48.556;9.342;2023-11-21T06:33:31;6.60;99.90
21744;DHT22;11034;48.556;9.342;2023-11-21T06:35:59;6.60;99.90
21744;DHT22;11034;48.556;9.342;2023-11-21T06:38:30;6.60;99.90
21744;DHT22;11034;48.556;9.342;2023-11-21T06:40:59;6.60;99.90
21744;DHT22;11034;48.556;9.342;2023-11-21T06:43:29;6.60;99.90
21744;DHT22;11034;48.556;9.342;2023-11-21T06:45:58;6.60;99.90
21744;DHT22;11034;48.556;9.342;2023-11-21T06:48:26;6.70;99.90
21744;DHT22;11034;48.556;9.342;2023-11-21T06:50:54;6.70;99.90
21744;DHT22;11034;48.556;9.342;2023-11-21T06:53:22;6.70;99.90
21744;DHT22;11034;48.556;9.342;2023-11-21T06:55:52;6.70;99.90
21744;DHT22;11034;48.556;9.342;2023-11-21T06:58:21;6.80;99.90
21744;DHT22;11034;48.556;9.342;2023-11-21T07:00:49;6.90;99.90
21744;DHT22;11034;48.556;9.342;2023-11-21T07:03:20;6.90;99.90
21744;DHT22;11034;48.556;9.342;2023-11-21T07:05:48;6.90;99.90
21744;DHT22;11034;48.556;9.342;2023-11-21T07:08:16;6.90;99.90
21744;DHT22;11034;48.556;9.342;2023-11-21T07:10:45;6.90;99.90
21744;DHT22;11034;48.556;9.342;2023-11-21T07:13:15;6.90;99.90
21744;DHT22;11034;48.556;9.342;2023-11-21T07:15:43;7.00;99.90
21744;DHT22;11034;48.556;9.342;2023-11-21T07:18:11;7.00;99.90
21744;DHT22;11034;48.556;9.342;2023-11-21T07:20:40;7.00;99.90
21744;DHT22;11034;48.556;9.342;2023-11-21T07:23:08;7.20;99.90
21744;DHT22;11034;48.556;9.342;2023-11-21T07:25:39;7.20;99.90
21744;DHT22;11034;48.556;9.342;2023-11-21T07:42:33;7.30;99.90
21744;DHT22;11034;48.556;9.342;2023-11-21T07:45:30;7.30;99.90
21744;DHT22;11034;48.556;9.342;2023-11-21T07:48:13;7.30;99.90
21744;DHT22;11034;48.556;9.342;2023-11-21T07:51:19;7.40;99.90
21744;DHT22;11034;48.556;9.342;2023-11-21T07:54:09;7.50;99.90
21744;DHT22;11034;48.556;9.342;2023-11-21T07:57:13;7.70;99.90
21744;DHT22;11034;48.556;9.342;2023-11-21T08:03:38;7.90;99.90
21744;DHT22;11034;48.556;9.342;2023-11-21T08:06:37;8.00;99.90
21744;DHT22;11034;48.556;9.342;2023-11-21T08:09:50;8.00;99.90
21744;DHT22;11034;48.556;9.342;2023-11-21T08:18:58;7.90;99.90
21744;DHT22;11034;48.556;9.342;2023-11-21T08:33:16;7.80;99.90
21744;DHT22;11034;48.556;9.342;2023-11-21T08:44:21;8.00;99.90
21744;DHT22;11034;48.556;9.342;2023-11-21T08:51:59;8.40;99.90
21744;DHT22;11034;48.556;9.342;2023-11-21T08:58:44;8.70;99.90
21744;DHT22;11034;48.556;9.342;2023-11-21T09:01:23;8.80;99.90
21744;DHT22;11034;48.556;9.342;2023-11-21T09:04:03;8.90;99.90
21744;DHT22;11034;48.556;9.342;2023-11-21T09:06:53;9.00;99.90
21744;DHT22;11034;48.556;9.342;2023-11-21T09:09:51;9.00;99.90
21744;DHT22;11034;48.556;9.342;2023-11-21T09:12:23;9.10;99.90
21744;DHT22;11034;48.556;9.342;2023-11-21T09:15:44;9.10;99.90
21744;DHT22;11034;48.556;9.342;2023-11-21T09:23:21;9.10;99.90
21744;DHT22;11034;48.556;9.342;2023-11-21T09:38:18;8.80;99.90
21744;DHT22;11034;48.556;9.342;2023-11-21T09:42:04;8.80;99.90
21744;DHT22;11034;48.556;9.342;2023-11-21T10:46:00;8.90;99.90
21744;DHT22;11034;48.556;9.342;2023-11-21T11:00:36;8.70;99.90
21744;DHT22;11034;48.556;9.342;2023-11-21T11:13:44;8.70;99.90
21744;DHT22;11034;48.556;9.342;2023-11-21T11:15:17;8.90;99.90
21744;DHT22;11034;48.556;9.342;2023-11-21T11:47:01;9.30;99.90
21744;DHT22;11034;48.556;9.342;2023-11-21T11:49:34;9.20;99.90
21744;DHT22;11034;48.556;9.342;2023-11-21T11:52:36;9.10;99.90
21744;DHT22;11034;48.556;9.342;2023-11-21T11:55:25;9.00;99.90
21744;DHT22;11034;48.556;9.342;2023-11-21T11:57:58;9.00;99.90
21744;DHT22;11034;48.556;9.342;2023-11-21T12:00:34;9.00;99.90
21744;DHT22;11034;48.556;9.342;2023-11-21T12:03:15;9.20;99.90
21744;DHT22;11034;48.556;9.342;2023-11-21T12:13:12;9.50;99.90
21744;DHT22;11034;48.556;9.342;2023-11-21T12:15:40;9.70;99.90
21744;DHT22;11034;48.556;9.342;2023-11-21T12:18:09;9.80;99.90
21744;DHT22;11034;48.556;9.342;2023-11-21T12:20:37;9.80;99.90
21744;DHT22;11034;48.556;9.342;2023-11-21T12:23:07;9.80;99.90
21744;DHT22;11034;48.556;9.342;2023-11-21T12:25:38;9.90;99.90
21744;DHT22;11034;48.556;9.342;2023-11-21T12:28:08;9.90;99.90
21744;DHT22;11034;48.556;9.342;2023-11-21T12:30:39;9.70;99.90
21744;DHT22;11034;48.556;9.342;2023-11-21T12:33:07;9.60;99.90
21744;DHT22;11034;48.556;9.342;2023-11-21T12:35:37;9.60;99.90
21744;DHT22;11034;48.556;9.342;2023-11-21T12:38:06;9.70;99.90
21744;DHT22;11034;48.556;9.342;2023-11-21T12:40:36;9.80;99.90
21744;DHT22;11034;48.556;9.342;2023-11-21T12:43:04;9.70;99.90
21744;DHT22;11034;48.556;9.342;2023-11-21T12:45:36;9.40;99.90
21744;DHT22;11034;48.556;9.342;2023-11-21T12:48:06;9.40;99.90
21744;DHT22;11034;48.556;9.342;2023-11-21T12:50:36;9.30;99.90
21744;DHT22;11034;48.556;9.342;2023-11-21T12:53:07;9.20;99.90
21744;DHT22;11034;48.556;9.342;2023-11-21T12:55:37;9.10;99.90
21744;DHT22;11034;48.556;9.342;2023-11-21T14:02:24;8.80;99.90
21744;DHT22;11034;48.556;9.342;2023-11-21T14:05:04;8.70;99.90
21744;DHT22;11034;48.556;9.342;2023-11-21T14:07:39;8.90;99.90
21744;DHT22;11034;48.556;9.342;2023-11-21T14:10:18;9.00;99.90
21744;DHT22;11034;48.556;9.342;2023-11-21T14:12:51;8.90;99.90
21744;DHT22;11034;48.556;9.342;2023-11-21T14:15:21;8.90;99.90
21744;DHT22;11034;48.556;9.342;2023-11-21T14:21:51;8.80;99.90
21744;DHT22;11034;48.556;9.342;2023-11-21T14:24:20;8.80;99.90
21744;DHT22;11034;48.556;9.342;2023-11-21T14:26:51;8.70;99.90
21744;DHT22;11034;48.556;9.342;2023-11-21T14:29:21;8.70;99.90
21744;DHT22;11034;48.556;9.342;2023-11-21T14:34:53;8.60;99.90
21744;DHT22;11034;48.556;9.342;2023-11-21T14:37:26;8.50;99.90
21744;DHT22;11034;48.556;9.342;2023-11-21T14:39:56;8.40;99.90
21744;DHT22;11034;48.556;9.342;2023-11-21T14:42:25;8.40;99.90
21744;DHT22;11034;48.556;9.342;2023-11-21T14:45:13;8.40;99.90
21744;DHT22;11034;48.556;9.342;2023-11-21T14:48:18;8.40;99.90
21744;DHT22;11034;48.556;9.342;2023-11-21T14:51:05;8.60;99.90
21744;DHT22;11034;48.556;9.342;2023-11-21T14:53:59;8.50;99.90
21744;DHT22;11034;48.556;9.342;2023-11-21T14:56:33;8.40;99.90
21744;DHT22;11034;48.556;9.342;2023-11-21T14:59:02;8.30;99.90
21744;DHT22;11034;48.556;9.342;2023-11-21T15:01:32;8.20;99.90
21744;DHT22;11034;48.556;9.342;2023-11-21T15:04:11;8.20;99.90
21744;DHT22;11034;48.556;9.342;2023-11-21T15:06:51;8.20;99.90
21744;DHT22;11034;48.556;9.342;2023-11-21T15:09:22;8.10;99.90
21744;DHT22;11034;48.556;9.342;2023-11-21T15:12:03;8.00;99.90
21744;DHT22;11034;48.556;9.342;2023-11-21T15:14:45;8.00;99.90
21744;DHT22;11034;48.556;9.342;2023-11-21T15:17:15;8.00;99.90
21744;DHT22;11034;48.556;9.342;2023-11-21T15:19:50;8.00;99.90
21744;DHT22;11034;48.556;9.342;2023-11-21T15:22:19;7.90;99.90
21744;DHT22;11034;48.556;9.342;2023-11-21T15:24:49;7.80;99.90
21744;DHT22;11034;48.556;9.342;2023-11-21T15:27:17;7.70;99.90
21744;DHT22;11034;48.556;9.342;2023-11-21T15:29:45;7.70;99.90
21744;DHT22;11034;48.556;9.342;2023-11-21T15:32:13;7.50;99.90
21744;DHT22;11034;48.556;9.342;2023-11-21T15:34:42;7.50;99.90
21744;DHT22;11034;48.556;9.342;2023-11-21T15:37:10;7.40;99.90
21744;DHT22;11034;48.556;9.342;2023-11-21T15:39:42;7.40;99.90
21744;DHT22;11034;48.556;9.342;2023-11-21T15:42:14;7.50;99.90
21744;DHT22;11034;48.556;9.342;2023-11-21T15:44:43;7.50;99.90
21744;DHT22;11034;48.556;9.342;2023-11-21T15:47:11;7.50;99.90
21744;DHT22;11034;48.556;9.342;2023-11-21T15:49:39;7.50;99.90
21744;DHT22;11034;48.556;9.342;2023-11-21T15:52:08;7.50;99.90
21744;DHT22;11034;48.556;9.342;2023-11-21T15:54:38;7.50;99.90
21744;DHT22;11034;48.556;9.342;2023-11-21T15:57:07;7.40;99.90
21744;DHT22;11034;48.556;9.342;2023-11-21T15:59:51;7.30;99.90
21744;DHT22;11034;48.556;9.342;2023-11-21T16:06:09;7.60;99.90
21744;DHT22;11034;48.556;9.342;2023-11-21T16:09:27;7.50;99.90
21744;DHT22;11034;48.556;9.342;2023-11-21T16:11:49;7.50;99.90
21744;DHT22;11034;48.556;9.342;2023-11-21T16:14:21;7.50;99.90
21744;DHT22;11034;48.556;9.342;2023-11-21T16:16:58;7.50;99.90
21744;DHT22;11034;48.556;9.342;2023-11-21T16:19:32;7.50;99.90
21744;DHT22;11034;48.556;9.342;2023-11-21T16:22:03;7.50;99.90
21744;DHT22;11034;48.556;9.342;2023-11-21T16:29:08;7.40;99.90
21744;DHT22;11034;48.556;9.342;2023-11-21T17:33:22;7.20;99.90
21744;DHT22;11034;48.556;9.342;2023-11-21T17:46:50;7.30;99.90
21744;DHT22;11034;48.556;9.342;2023-11-21T17:50:03;7.20;99.90
21744;DHT22;11034;48.556;9.342;2023-11-21T17:56:26;7.20;99.90
21744;DHT22;11034;48.556;9.342;2023-11-21T17:59:26;7.10;99.90
21744;DHT22;11034;48.556;9.342;2023-11-21T18:10:13;7.20;99.90
21744;DHT22;11034;48.556;9.342;2023-11-21T18:31:58;6.90;99.90
21744;DHT22;11034;48.556;9.342;2023-11-21T18:42:23;6.80;99.90
21744;DHT22;11034;48.556;9.342;2023-11-21T19:53:27;7.00;99.90
21744;DHT22;11034;48.556;9.342;2023-11-21T19:56:01;7.20;99.90
21744;DHT22;11034;48.556;9.342;2023-11-21T19:58:41;7.30;99.90
21744;DHT22;11034;48.556;9.342;2023-11-21T20:01:09;7.20;99.90
21744;DHT22;11034;48.556;9.342;2023-11-21T20:14:04;6.90;99.90
21744;DHT22;11034;48.556;9.342;2023-11-21T20:20:37;6.90;99.90
21744;DHT22;11034;48.556;9.342;2023-11-21T22:06:28;6.70;99.90
21744;DHT22;11034;48.556;9.342;2023-11-21T22:09:05;6.70;99.90
21744;DHT22;11034;48.556;9.342;2023-11-21T22:12:30;6.70;99.90
21744;DHT22;11034;48.556;9.342;2023-11-21T22:20:03;6.60;99.90
